sensor_id;sensor_type;location;lat;lon;timestamp;pressure;altitude;pressure_sealevel;temperature;humidity
65329;BME280;51941;52.210;5.158;2023-06-22T00:00:04;101927.91;;;18.32;100.00
65329;BME280;51941;52.210;5.158;2023-06-22T00:02:37;101924.09;;;18.28;100.00
65329;BME280;51941;52.210;5.158;2023-06-22T00:05:04;101925.97;;;18.28;100.00
65329;BME280;51941;52.210;5.158;2023-06-22T00:07:31;101921.41;;;18.28;100.00
65329;BME280;51941;52.210;5.158;2023-06-22T00:09:59;101917.69;;;18.29;100.00
65329;BME280;51941;52.210;5.158;2023-06-22T00:12:26;101924.66;;;18.30;100.00
65329;BME280;51941;52.210;5.158;2023-06-22T00:14:52;101917.69;;;18.29;100.00
65329;BME280;51941;52.210;5.158;2023-06-22T00:17:19;101923.03;;;18.29;100.00
65329;BME280;51941;52.210;5.158;2023-06-22T00:19:46;101927.03;;;18.27;100.00
65329;BME280;51941;52.210;5.158;2023-06-22T00:22:18;101923.81;;;18.25;100.00
65329;BME280;51941;52.210;5.158;2023-06-22T00:24:46;101926.19;;;18.21;100.00
65329;BME280;51941;52.210;5.158;2023-06-22T00:27:15;101925.09;;;18.17;100.00
65329;BME280;51941;52.210;5.158;2023-06-22T00:29:41;101924.22;;;18.11;100.00
65329;BME280;51941;52.210;5.158;2023-06-22T00:32:08;101923.38;;;18.06;100.00
65329;BME280;51941;52.210;5.158;2023-06-22T00:34:34;101923.31;;;18.01;100.00
65329;BME280;51941;52.210;5.158;2023-06-22T00:37:01;101915.81;;;17.98;100.00
65329;BME280;51941;52.210;5.158;2023-06-22T00:39:28;101914.19;;;17.97;100.00
65329;BME280;51941;52.210;5.158;2023-06-22T00:41:54;101911.25;;;17.98;100.00
65329;BME280;51941;52.210;5.158;2023-06-22T00:44:26;101904.56;;;18.01;100.00
65329;BME280;51941;52.210;5.158;2023-06-22T00:46:53;101904.06;;;18.04;100.00
65329;BME280;51941;52.210;5.158;2023-06-22T00:49:19;101894.47;;;18.08;100.00
65329;BME280;51941;52.210;5.158;2023-06-22T00:51:46;101888.56;;;18.06;100.00
65329;BME280;51941;52.210;5.158;2023-06-22T00:54:13;101898.25;;;18.12;100.00
65329;BME280;51941;52.210;5.158;2023-06-22T00:56:40;101893.94;;;18.11;100.00
65329;BME280;51941;52.210;5.158;2023-06-22T00:59:07;101892.06;;;18.11;100.00
65329;BME280;51941;52.210;5.158;2023-06-22T01:01:38;101895.56;;;18.12;100.00
65329;BME280;51941;52.210;5.158;2023-06-22T01:04:06;101899.03;;;18.12;100.00
65329;BME280;51941;52.210;5.158;2023-06-22T01:06:37;101907.91;;;18.13;100.00
65329;BME280;51941;52.210;5.158;2023-06-22T01:09:09;101892.06;;;18.11;100.00
65329;BME280;51941;52.210;5.158;2023-06-22T01:11:44;101890.41;;;18.05;100.00
65329;BME280;51941;52.210;5.158;2023-06-22T01:14:15;101894.41;;;18.03;100.00
65329;BME280;51941;52.210;5.158;2023-06-22T01:16:48;101894.91;;;18.00;100.00
65329;BME280;51941;52.210;5.158;2023-06-22T01:19:29;101897.31;;;17.96;100.00
65329;BME280;51941;52.210;5.158;2023-06-22T01:22:02;101890.31;;;17.95;100.00
65329;BME280;51941;52.210;5.158;2023-06-22T01:24:38;101894.31;;;17.93;100.00
65329;BME280;51941;52.210;5.158;2023-06-22T01:27:18;101891.09;;;17.91;100.00
65329;BME280;51941;52.210;5.158;2023-06-22T01:29:50;101887.53;;;17.85;100.00
65329;BME280;51941;52.210;5.158;2023-06-22T01:32:20;101886.16;;;17.83;100.00
65329;BME280;51941;52.210;5.158;2023-06-22T01:34:47;101884.59;;;17.82;100.00
65329;BME280;51941;52.210;5.158;2023-06-22T01:37:15;101894.97;;;17.78;100.00
65329;BME280;51941;52.210;5.158;2023-06-22T01:39:42;101902.69;;;17.74;100.00
65329;BME280;51941;52.210;5.158;2023-06-22T01:42:10;101897.88;;;17.71;100.00
65329;BME280;51941;52.210;5.158;2023-06-22T01:44:40;101901.03;;;17.68;100.00
65329;BME280;51941;52.210;5.158;2023-06-22T01:47:10;101901.53;;;17.65;100.00
65329;BME280;51941;52.210;5.158;2023-06-22T01:49:39;101896.69;;;17.62;100.00
65329;BME280;51941;52.210;5.158;2023-06-22T01:52:07;101890.78;;;17.60;100.00
65329;BME280;51941;52.210;5.158;2023-06-22T01:54:33;101883.00;;;17.59;100.00
65329;BME280;51941;52.210;5.158;2023-06-22T01:57:00;101881.38;;;17.58;100.00
65329;BME280;51941;52.210;5.158;2023-06-22T01:59:32;101888.84;;;17.56;100.00
65329;BME280;51941;52.210;5.158;2023-06-22T02:02:04;101882.59;;;17.50;100.00
65329;BME280;51941;52.210;5.158;2023-06-22T02:04:37;101879.34;;;17.48;100.00
65329;BME280;51941;52.210;5.158;2023-06-22T02:07:10;101878.25;;;17.44;100.00
65329;BME280;51941;52.210;5.158;2023-06-22T02:09:41;101873.63;;;17.39;100.00
65329;BME280;51941;52.210;5.158;2023-06-22T02:12:11;101873.63;;;17.39;100.00
65329;BME280;51941;52.210;5.158;2023-06-22T02:14:39;101878.19;;;17.39;100.00
65329;BME280;51941;52.210;5.158;2023-06-22T02:17:08;101879.75;;;17.35;100.00
65329;BME280;51941;52.210;5.158;2023-06-22T02:19:37;101871.94;;;17.28;100.00
65329;BME280;51941;52.210;5.158;2023-06-22T02:22:08;101873.56;;;17.29;100.00
65329;BME280;51941;52.210;5.158;2023-06-22T02:24:36;101875.41;;;17.29;100.00
65329;BME280;51941;52.210;5.158;2023-06-22T02:27:03;101872.91;;;17.22;100.00
65329;BME280;51941;52.210;5.158;2023-06-22T02:29:32;101881.50;;;17.24;100.00
65329;BME280;51941;52.210;5.158;2023-06-22T02:31:59;101877.44;;;17.22;100.00
65329;BME280;51941;52.210;5.158;2023-06-22T02:34:26;101871.47;;;17.15;100.00
65329;BME280;51941;52.210;5.158;2023-06-22T02:36:54;101872.06;;;17.17;100.00
65329;BME280;51941;52.210;5.158;2023-06-22T02:39:21;101866.91;;;17.10;100.00
65329;BME280;51941;52.210;5.158;2023-06-22T02:41:49;101875.22;;;17.14;100.00
65329;BME280;51941;52.210;5.158;2023-06-22T02:44:15;101876.25;;;17.13;100.00
65329;BME280;51941;52.210;5.158;2023-06-22T02:46:42;101874.09;;;17.10;100.00
65329;BME280;51941;52.210;5.158;2023-06-22T02:49:10;101869.81;;;17.09;100.00
65329;BME280;51941;52.210;5.158;2023-06-22T02:51:38;101872.97;;;17.05;100.00
65329;BME280;51941;52.210;5.158;2023-06-22T02:54:08;101869.47;;;17.05;100.00
65329;BME280;51941;52.210;5.158;2023-06-22T02:56:35;101868.69;;;17.04;100.00
65329;BME280;51941;52.210;5.158;2023-06-22T02:59:02;101865.47;;;17.02;100.00
65329;BME280;51941;52.210;5.158;2023-06-22T03:01:36;101871.06;;;17.01;100.00
65329;BME280;51941;52.210;5.158;2023-06-22T03:04:09;101868.06;;;16.97;100.00
65329;BME280;51941;52.210;5.158;2023-06-22T03:06:36;101870.97;;;16.96;100.00
65329;BME280;51941;52.210;5.158;2023-06-22T03:09:08;101865.88;;;16.94;100.00
65329;BME280;51941;52.210;5.158;2023-06-22T03:11:35;101877.66;;;16.93;100.00
65329;BME280;51941;52.210;5.158;2023-06-22T03:14:02;101864.75;;;16.90;100.00
65329;BME280;51941;52.210;5.158;2023-06-22T03:16:29;101863.94;;;16.90;100.00
65329;BME280;51941;52.210;5.158;2023-06-22T03:18:57;101865.25;;;16.87;100.00
65329;BME280;51941;52.210;5.158;2023-06-22T03:21:23;101874.31;;;16.86;100.00
65329;BME280;51941;52.210;5.158;2023-06-22T03:23:51;101870.06;;;16.85;100.00
65329;BME280;51941;52.210;5.158;2023-06-22T03:26:19;101870.28;;;16.84;100.00
65329;BME280;51941;52.210;5.158;2023-06-22T03:28:46;101871.34;;;16.83;100.00
65329;BME280;51941;52.210;5.158;2023-06-22T03:31:13;101876.13;;;16.81;100.00
65329;BME280;51941;52.210;5.158;2023-06-22T03:33:40;101857.09;;;16.77;100.00
65329;BME280;51941;52.210;5.158;2023-06-22T03:36:06;101860.31;;;16.79;100.00
65329;BME280;51941;52.210;5.158;2023-06-22T03:38:33;101857.09;;;16.77;100.00
65329;BME280;51941;52.210;5.158;2023-06-22T03:41:00;101857.09;;;16.77;100.00
65329;BME280;51941;52.210;5.158;2023-06-22T03:43:30;101857.34;;;16.76;100.00
65329;BME280;51941;52.210;5.158;2023-06-22T03:45:57;101852.50;;;16.73;100.00
65329;BME280;51941;52.210;5.158;2023-06-22T03:48:23;101857.25;;;16.71;100.00
65329;BME280;51941;52.210;5.158;2023-06-22T03:50:50;101852.16;;;16.69;100.00
65329;BME280;51941;52.210;5.158;2023-06-22T03:53:17;101852.97;;;16.70;100.00
65329;BME280;51941;52.210;5.158;2023-06-22T03:55:48;101859.69;;;16.72;100.00
65329;BME280;51941;52.210;5.158;2023-06-22T03:58:16;101857.84;;;16.73;100.00
65329;BME280;51941;52.210;5.158;2023-06-22T04:00:45;101860.28;;;16.74;100.00
65329;BME280;51941;52.210;5.158;2023-06-22T04:03:13;101854.09;;;16.74;100.00
65329;BME280;51941;52.210;5.158;2023-06-22T04:05:40;101842.53;;;16.68;100.00
65329;BME280;51941;52.210;5.158;2023-06-22T04:08:07;101857.09;;;16.77;100.00
65329;BME280;51941;52.210;5.158;2023-06-22T04:10:34;101856.28;;;16.77;100.00
65329;BME280;51941;52.210;5.158;2023-06-22T04:13:01;101848.53;;;16.75;100.00
65329;BME280;51941;52.210;5.158;2023-06-22T04:15:28;101847.94;;;16.73;100.00
65329;BME280;51941;52.210;5.158;2023-06-22T04:17:56;101840.31;;;16.82;100.00
65329;BME280;51941;52.210;5.158;2023-06-22T04:20:23;101834.63;;;16.78;100.00
65329;BME280;51941;52.210;5.158;2023-06-22T04:22:51;101842.22;;;16.86;100.00
65329;BME280;51941;52.210;5.158;2023-06-22T04:25:18;101836.97;;;16.91;100.00
65329;BME280;51941;52.210;5.158;2023-06-22T04:27:45;101840.25;;;16.98;100.00
65329;BME280;51941;52.210;5.158;2023-06-22T04:30:12;101844.16;;;17.13;100.00
65329;BME280;51941;52.210;5.158;2023-06-22T04:32:42;101839.66;;;17.62;100.00
65329;BME280;51941;52.210;5.158;2023-06-22T04:35:10;101843.69;;;18.28;100.00
65329;BME280;51941;52.210;5.158;2023-06-22T04:37:37;101846.44;;;18.80;100.00
65329;BME280;51941;52.210;5.158;2023-06-22T04:40:06;101838.06;;;19.29;100.00
65329;BME280;51941;52.210;5.158;2023-06-22T04:42:34;101842.22;;;19.82;100.00
65329;BME280;51941;52.210;5.158;2023-06-22T04:45:01;101841.16;;;20.34;100.00
65329;BME280;51941;52.210;5.158;2023-06-22T04:47:27;101830.25;;;20.85;100.00
65329;BME280;51941;52.210;5.158;2023-06-22T04:49:54;101840.66;;;21.11;100.00
65329;BME280;51941;52.210;5.158;2023-06-22T04:52:22;101838.63;;;21.42;100.00
65329;BME280;51941;52.210;5.158;2023-06-22T04:54:50;101837.81;;;21.86;100.00
65329;BME280;51941;52.210;5.158;2023-06-22T04:57:21;101828.59;;;22.21;100.00
65329;BME280;51941;52.210;5.158;2023-06-22T04:59:57;101834.75;;;22.55;100.00
65329;BME280;51941;52.210;5.158;2023-06-22T05:02:27;101845.97;;;22.86;100.00
65329;BME280;51941;52.210;5.158;2023-06-22T05:04:58;101836.19;;;23.14;100.00
65329;BME280;51941;52.210;5.158;2023-06-22T05:07:26;101843.09;;;23.25;100.00
65329;BME280;51941;52.210;5.158;2023-06-22T05:09:53;101839.22;;;23.31;100.00
65329;BME280;51941;52.210;5.158;2023-06-22T05:12:22;101841.25;;;23.40;100.00
65329;BME280;51941;52.210;5.158;2023-06-22T05:14:49;101827.84;;;23.34;100.00
65329;BME280;51941;52.210;5.158;2023-06-22T05:17:16;101828.78;;;23.25;100.00
65329;BME280;51941;52.210;5.158;2023-06-22T05:19:44;101822.97;;;23.13;100.00
65329;BME280;51941;52.210;5.158;2023-06-22T05:22:14;101833.63;;;23.04;100.00
65329;BME280;51941;52.210;5.158;2023-06-22T05:24:42;101839.94;;;23.18;100.00
65329;BME280;51941;52.210;5.158;2023-06-22T05:27:09;101837.47;;;23.41;100.00
65329;BME280;51941;52.210;5.158;2023-06-22T05:29:36;101842.72;;;23.32;100.00
65329;BME280;51941;52.210;5.158;2023-06-22T05:32:03;101844.03;;;23.34;100.00
65329;BME280;51941;52.210;5.158;2023-06-22T05:34:30;101840.16;;;23.41;100.00
65329;BME280;51941;52.210;5.158;2023-06-22T05:36:57;101840.22;;;23.54;100.00
65329;BME280;51941;52.210;5.158;2023-06-22T05:39:24;101846.41;;;23.73;100.00
65329;BME280;51941;52.210;5.158;2023-06-22T05:41:53;101844.44;;;23.98;100.00
65329;BME280;51941;52.210;5.158;2023-06-22T05:44:19;101844.34;;;23.84;100.00
65329;BME280;51941;52.210;5.158;2023-06-22T05:46:46;101850.41;;;23.44;100.00
65329;BME280;51941;52.210;5.158;2023-06-22T05:49:13;101856.75;;;22.91;100.00
65329;BME280;51941;52.210;5.158;2023-06-22T05:51:41;101854.31;;;22.66;100.00
65329;BME280;51941;52.210;5.158;2023-06-22T05:54:07;101857.81;;;22.67;100.00
65329;BME280;51941;52.210;5.158;2023-06-22T05:56:34;101866.97;;;23.13;100.00
65329;BME280;51941;52.210;5.158;2023-06-22T05:59:04;101855.28;;;23.23;100.00
65329;BME280;51941;52.210;5.158;2023-06-22T06:01:30;101858.03;;;22.94;100.00
65329;BME280;51941;52.210;5.158;2023-06-22T06:04:01;101850.41;;;22.77;100.00
65329;BME280;51941;52.210;5.158;2023-06-22T06:06:29;101857.47;;;22.49;100.00
65329;BME280;51941;52.210;5.158;2023-06-22T06:08:56;101852.88;;;22.50;100.00
65329;BME280;51941;52.210;5.158;2023-06-22T06:11:22;101844.25;;;22.48;100.00
65329;BME280;51941;52.210;5.158;2023-06-22T06:13:49;101851.50;;;22.76;100.00
65329;BME280;51941;52.210;5.158;2023-06-22T06:16:17;101851.63;;;23.32;100.00
65329;BME280;51941;52.210;5.158;2023-06-22T06:18:44;101848.69;;;23.66;100.00
65329;BME280;51941;52.210;5.158;2023-06-22T06:21:11;101843.84;;;23.82;100.00
65329;BME280;51941;52.210;5.158;2023-06-22T06:23:38;101840.84;;;23.84;100.00
65329;BME280;51941;52.210;5.158;2023-06-22T06:26:04;101845.31;;;23.93;100.00
65329;BME280;51941;52.210;5.158;2023-06-22T06:28:32;101844.34;;;23.84;100.00
65329;BME280;51941;52.210;5.158;2023-06-22T06:30:59;101834.34;;;23.85;100.00
65329;BME280;51941;52.210;5.158;2023-06-22T06:33:27;101836.41;;;23.93;100.00
65329;BME280;51941;52.210;5.158;2023-06-22T06:35:54;101829.22;;;23.83;100.00
65329;BME280;51941;52.210;5.158;2023-06-22T06:38:21;101827.31;;;24.02;100.00
65329;BME280;51941;52.210;5.158;2023-06-22T06:40:48;101833.13;;;23.96;100.00
65329;BME280;51941;52.210;5.158;2023-06-22T06:43:15;101826.41;;;23.93;100.00
65329;BME280;51941;52.210;5.158;2023-06-22T06:45:42;101834.22;;;23.95;100.00
65329;BME280;51941;52.210;5.158;2023-06-22T06:48:09;101829.22;;;24.02;100.00
65329;BME280;51941;52.210;5.158;2023-06-22T06:50:37;101830.78;;;24.22;100.00
65329;BME280;51941;52.210;5.158;2023-06-22T06:53:03;101828.88;;;24.36;99.30
65329;BME280;51941;52.210;5.158;2023-06-22T06:55:30;101828.47;;;24.42;98.01
65329;BME280;51941;52.210;5.158;2023-06-22T06:57:58;101820.28;;;24.47;96.02
65329;BME280;51941;52.210;5.158;2023-06-22T07:00:25;101825.34;;;24.68;96.34
65329;BME280;51941;52.210;5.158;2023-06-22T07:02:52;101824.81;;;24.93;95.78
65329;BME280;51941;52.210;5.158;2023-06-22T07:05:19;101825.16;;;25.28;93.89
65329;BME280;51941;52.210;5.158;2023-06-22T07:07:50;101824.56;;;25.75;89.83
65329;BME280;51941;52.210;5.158;2023-06-22T07:10:18;101816.56;;;25.92;85.58
65329;BME280;51941;52.210;5.158;2023-06-22T07:12:45;101822.31;;;26.22;84.55
65329;BME280;51941;52.210;5.158;2023-06-22T07:15:13;101820.25;;;26.58;81.35
65329;BME280;51941;52.210;5.158;2023-06-22T07:17:40;101820.81;;;26.86;79.20
65329;BME280;51941;52.210;5.158;2023-06-22T07:20:08;101823.25;;;27.14;75.51
65329;BME280;51941;52.210;5.158;2023-06-22T07:22:36;101812.03;;;26.98;73.65
65329;BME280;51941;52.210;5.158;2023-06-22T07:25:05;101815.41;;;27.03;74.47
65329;BME280;51941;52.210;5.158;2023-06-22T07:27:35;101813.28;;;26.92;75.34
65329;BME280;51941;52.210;5.158;2023-06-22T07:30:05;101816.38;;;27.16;74.01
65329;BME280;51941;52.210;5.158;2023-06-22T07:32:32;101816.22;;;27.13;73.02
65329;BME280;51941;52.210;5.158;2023-06-22T07:34:59;101824.72;;;27.28;73.11
65329;BME280;51941;52.210;5.158;2023-06-22T07:37:27;101815.94;;;27.49;71.11
65329;BME280;51941;52.210;5.158;2023-06-22T07:39:54;101811.91;;;27.63;70.68
65329;BME280;51941;52.210;5.158;2023-06-22T07:42:25;101815.25;;;27.86;68.94
65329;BME280;51941;52.210;5.158;2023-06-22T07:44:53;101811.03;;;28.06;67.61
65329;BME280;51941;52.210;5.158;2023-06-22T07:47:20;101807.13;;;28.24;65.36
65329;BME280;51941;52.210;5.158;2023-06-22T07:49:50;101802.22;;;28.47;64.42
65329;BME280;51941;52.210;5.158;2023-06-22T07:52:17;101814.31;;;28.67;62.76
65329;BME280;51941;52.210;5.158;2023-06-22T07:54:44;101800.19;;;28.44;63.96
65329;BME280;51941;52.210;5.158;2023-06-22T07:57:10;101790.59;;;28.67;62.59
65329;BME280;51941;52.210;5.158;2023-06-22T07:59:38;101803.50;;;28.79;61.79
65329;BME280;51941;52.210;5.158;2023-06-22T08:02:05;101800.22;;;28.94;61.79
65329;BME280;51941;52.210;5.158;2023-06-22T08:04:34;101798.41;;;29.19;57.25
65329;BME280;51941;52.210;5.158;2023-06-22T08:07:01;101799.38;;;28.43;62.57
65329;BME280;51941;52.210;5.158;2023-06-22T08:09:29;101788.25;;;28.19;65.43
65329;BME280;51941;52.210;5.158;2023-06-22T08:11:56;101779.38;;;28.69;61.76
65329;BME280;51941;52.210;5.158;2023-06-22T08:14:24;101776.28;;;28.49;60.73
65329;BME280;51941;52.210;5.158;2023-06-22T08:16:53;101772.69;;;28.28;62.69
65329;BME280;51941;52.210;5.158;2023-06-22T08:19:19;101772.50;;;28.33;63.30
65329;BME280;51941;52.210;5.158;2023-06-22T08:21:46;101767.63;;;28.47;61.06
65329;BME280;51941;52.210;5.158;2023-06-22T08:24:13;101768.31;;;28.44;60.50
65329;BME280;51941;52.210;5.158;2023-06-22T08:26:39;101754.47;;;28.49;59.52
65329;BME280;51941;52.210;5.158;2023-06-22T08:29:06;101753.84;;;28.52;59.04
65329;BME280;51941;52.210;5.158;2023-06-22T08:31:33;101747.00;;;28.67;59.28
65329;BME280;51941;52.210;5.158;2023-06-22T08:34:01;101745.84;;;28.98;57.34
65329;BME280;51941;52.210;5.158;2023-06-22T08:36:28;101745.38;;;28.96;57.23
65329;BME280;51941;52.210;5.158;2023-06-22T08:39:00;101745.56;;;29.11;56.19
65329;BME280;51941;52.210;5.158;2023-06-22T08:41:28;101745.97;;;29.01;54.79
65329;BME280;51941;52.210;5.158;2023-06-22T08:43:55;101749.00;;;28.79;56.10
65329;BME280;51941;52.210;5.158;2023-06-22T08:46:22;101750.13;;;28.78;56.70
65329;BME280;51941;52.210;5.158;2023-06-22T08:48:55;101744.19;;;28.26;59.56
65329;BME280;51941;52.210;5.158;2023-06-22T08:51:23;101742.94;;;28.14;59.73
65329;BME280;51941;52.210;5.158;2023-06-22T08:53:50;101737.78;;;27.92;60.63
65329;BME280;51941;52.210;5.158;2023-06-22T08:56:17;101733.53;;;27.48;61.67
65329;BME280;51941;52.210;5.158;2023-06-22T08:58:44;101740.44;;;27.28;64.20
65329;BME280;51941;52.210;5.158;2023-06-22T09:01:11;101736.41;;;27.08;65.24
65329;BME280;51941;52.210;5.158;2023-06-22T09:03:37;101734.03;;;26.90;66.40
65329;BME280;51941;52.210;5.158;2023-06-22T09:06:04;101737.69;;;26.68;66.38
65329;BME280;51941;52.210;5.158;2023-06-22T09:08:33;101735.28;;;26.18;69.02
65329;BME280;51941;52.210;5.158;2023-06-22T09:10:59;101729.56;;;26.28;68.42
65329;BME280;51941;52.210;5.158;2023-06-22T09:13:27;101724.59;;;26.22;68.71
65329;BME280;51941;52.210;5.158;2023-06-22T09:15:54;101720.44;;;26.16;72.13
65329;BME280;51941;52.210;5.158;2023-06-22T09:18:21;101725.97;;;26.02;74.44
65329;BME280;51941;52.210;5.158;2023-06-22T09:20:48;101721.44;;;25.89;72.33
65329;BME280;51941;52.210;5.158;2023-06-22T09:23:14;101720.72;;;26.06;70.91
65329;BME280;51941;52.210;5.158;2023-06-22T09:25:42;101713.97;;;25.94;67.54
65329;BME280;51941;52.210;5.158;2023-06-22T09:28:09;101712.69;;;26.01;68.80
65329;BME280;51941;52.210;5.158;2023-06-22T09:30:36;101712.25;;;25.99;68.07
65329;BME280;51941;52.210;5.158;2023-06-22T09:33:02;101707.63;;;25.99;65.82
65329;BME280;51941;52.210;5.158;2023-06-22T09:35:29;101714.31;;;26.02;63.89
65329;BME280;51941;52.210;5.158;2023-06-22T09:37:56;101720.44;;;26.16;62.57
65329;BME280;51941;52.210;5.158;2023-06-22T09:40:22;101718.34;;;26.13;63.39
65329;BME280;51941;52.210;5.158;2023-06-22T09:42:51;101714.69;;;26.09;63.60
65329;BME280;51941;52.210;5.158;2023-06-22T09:45:17;101720.88;;;26.09;63.26
65329;BME280;51941;52.210;5.158;2023-06-22T09:47:44;101719.00;;;26.18;61.49
65329;BME280;51941;52.210;5.158;2023-06-22T09:50:11;101716.25;;;26.10;61.15
65329;BME280;51941;52.210;5.158;2023-06-22T09:52:38;101721.22;;;26.08;62.03
65329;BME280;51941;52.210;5.158;2023-06-22T09:55:05;101708.59;;;26.12;60.82
65329;BME280;51941;52.210;5.158;2023-06-22T09:57:32;101714.50;;;26.05;58.24
65329;BME280;51941;52.210;5.158;2023-06-22T10:00:00;101705.25;;;26.06;58.91
65329;BME280;51941;52.210;5.158;2023-06-22T10:02:30;101709.06;;;26.05;58.42
65329;BME280;51941;52.210;5.158;2023-06-22T10:04:56;101706.66;;;26.04;58.33
65329;BME280;51941;52.210;5.158;2023-06-22T10:07:23;101701.50;;;25.93;59.45
65329;BME280;51941;52.210;5.158;2023-06-22T10:09:50;101695.81;;;26.04;58.39
65329;BME280;51941;52.210;5.158;2023-06-22T10:12:16;101699.94;;;26.01;59.22
65329;BME280;51941;52.210;5.158;2023-06-22T10:14:43;101707.63;;;25.77;62.38
65329;BME280;51941;52.210;5.158;2023-06-22T10:17:11;101698.91;;;25.88;60.11
65329;BME280;51941;52.210;5.158;2023-06-22T10:19:38;101691.91;;;25.87;59.06
65329;BME280;51941;52.210;5.158;2023-06-22T10:22:06;101691.09;;;25.87;60.30
65329;BME280;51941;52.210;5.158;2023-06-22T10:24:33;101700.41;;;25.94;62.28
65329;BME280;51941;52.210;5.158;2023-06-22T10:27:00;101697.28;;;25.79;63.03
65329;BME280;51941;52.210;5.158;2023-06-22T10:29:27;101693.06;;;25.64;64.37
65329;BME280;51941;52.210;5.158;2023-06-22T10:31:54;101696.66;;;25.51;65.82
65329;BME280;51941;52.210;5.158;2023-06-22T10:34:22;101691.53;;;25.49;66.26
65329;BME280;51941;52.210;5.158;2023-06-22T10:36:48;101690.69;;;25.40;67.19
65329;BME280;51941;52.210;5.158;2023-06-22T10:39:15;101689.41;;;25.38;67.19
65329;BME280;51941;52.210;5.158;2023-06-22T10:41:42;101699.97;;;25.26;66.97
65329;BME280;51941;52.210;5.158;2023-06-22T10:44:09;101689.69;;;25.14;68.07
65329;BME280;51941;52.210;5.158;2023-06-22T10:46:36;101704.22;;;25.18;67.43
65329;BME280;51941;52.210;5.158;2023-06-22T10:49:03;101702.00;;;25.20;65.85
65329;BME280;51941;52.210;5.158;2023-06-22T10:51:31;101707.75;;;25.18;67.03
65329;BME280;51941;52.210;5.158;2023-06-22T10:53:58;101710.69;;;25.08;68.48
65329;BME280;51941;52.210;5.158;2023-06-22T10:56:24;101703.06;;;25.10;68.09
65329;BME280;51941;52.210;5.158;2023-06-22T10:58:51;101699.84;;;25.08;69.54
65329;BME280;51941;52.210;5.158;2023-06-22T11:01:18;101704.66;;;25.11;69.02
65329;BME280;51941;52.210;5.158;2023-06-22T11:03:44;101690.78;;;25.13;65.98
65329;BME280;51941;52.210;5.158;2023-06-22T11:06:11;101706.06;;;25.09;66.31
65329;BME280;51941;52.210;5.158;2023-06-22T11:08:39;101699.53;;;25.10;66.83
65329;BME280;51941;52.210;5.158;2023-06-22T11:11:06;101709.38;;;25.06;68.02
65329;BME280;51941;52.210;5.158;2023-06-22T11:13:32;101710.13;;;24.98;69.01
65329;BME280;51941;52.210;5.158;2023-06-22T11:15:59;101710.13;;;24.98;69.74
65329;BME280;51941;52.210;5.158;2023-06-22T11:18:26;101698.31;;;24.94;69.97
65329;BME280;51941;52.210;5.158;2023-06-22T11:20:53;101699.25;;;24.75;69.75
65329;BME280;51941;52.210;5.158;2023-06-22T11:23:19;101698.47;;;24.75;70.11
65329;BME280;51941;52.210;5.158;2023-06-22T11:25:47;101704.69;;;24.75;69.72
65329;BME280;51941;52.210;5.158;2023-06-22T11:28:14;101707.78;;;24.69;69.95
65329;BME280;51941;52.210;5.158;2023-06-22T11:30:41;101697.38;;;24.62;71.59
65329;BME280;51941;52.210;5.158;2023-06-22T11:33:08;101702.78;;;24.48;73.11
65329;BME280;51941;52.210;5.158;2023-06-22T11:35:34;101701.81;;;24.31;76.67
65329;BME280;51941;52.210;5.158;2023-06-22T11:38:01;101700.59;;;24.09;80.47
65329;BME280;51941;52.210;5.158;2023-06-22T11:40:29;101690.59;;;23.96;81.21
65329;BME280;51941;52.210;5.158;2023-06-22T11:42:57;101689.28;;;23.94;84.30
65329;BME280;51941;52.210;5.158;2023-06-22T11:45:24;101685.53;;;23.90;85.65
65329;BME280;51941;52.210;5.158;2023-06-22T11:47:51;101685.13;;;23.83;86.06
65329;BME280;51941;52.210;5.158;2023-06-22T11:50:17;101685.13;;;23.83;85.50
65329;BME280;51941;52.210;5.158;2023-06-22T11:52:44;101680.13;;;23.76;86.28
65329;BME280;51941;52.210;5.158;2023-06-22T11:55:11;101673.91;;;23.75;87.26
65329;BME280;51941;52.210;5.158;2023-06-22T11:57:39;101674.91;;;23.66;89.96
65329;BME280;51941;52.210;5.158;2023-06-22T12:00:19;101665.09;;;23.70;91.69
65329;BME280;51941;52.210;5.158;2023-06-22T12:02:48;101660.78;;;23.69;92.56
65329;BME280;51941;52.210;5.158;2023-06-22T12:05:17;101656.50;;;23.68;95.30
65329;BME280;51941;52.210;5.158;2023-06-22T12:07:44;101656.19;;;23.69;95.35
65329;BME280;51941;52.210;5.158;2023-06-22T12:10:11;101650.69;;;23.61;96.20
65329;BME280;51941;52.210;5.158;2023-06-22T12:12:37;101650.97;;;23.59;98.27
65329;BME280;51941;52.210;5.158;2023-06-22T12:15:05;101648.34;;;23.54;100.00
65329;BME280;51941;52.210;5.158;2023-06-22T12:17:34;101646.75;;;23.53;100.00
65329;BME280;51941;52.210;5.158;2023-06-22T12:20:01;101639.53;;;23.49;100.00
65329;BME280;51941;52.210;5.158;2023-06-22T12:22:30;101640.34;;;23.49;100.00
65329;BME280;51941;52.210;5.158;2023-06-22T12:24:57;101635.84;;;23.58;100.00
65329;BME280;51941;52.210;5.158;2023-06-22T12:27:25;101650.56;;;23.52;100.00
65329;BME280;51941;52.210;5.158;2023-06-22T12:29:55;101634.72;;;23.46;100.00
65329;BME280;51941;52.210;5.158;2023-06-22T12:32:22;101633.31;;;23.34;100.00
65329;BME280;51941;52.210;5.158;2023-06-22T12:34:51;101633.09;;;23.31;100.00
65329;BME280;51941;52.210;5.158;2023-06-22T12:37:17;101632.00;;;23.32;100.00
65329;BME280;51941;52.210;5.158;2023-06-22T12:39:44;101636.44;;;23.42;100.00
65329;BME280;51941;52.210;5.158;2023-06-22T12:42:11;101633.72;;;23.42;100.00
65329;BME280;51941;52.210;5.158;2023-06-22T12:44:38;101636.00;;;23.34;100.00
65329;BME280;51941;52.210;5.158;2023-06-22T12:47:05;101632.97;;;23.22;100.00